Time;durP1;ratioP1;P1;durP2;ratioP2;P2;SDS_P1;SDS_P2;PMS_P1;PMS_P2;Temp;Humidity;BMP_temperature;BMP_pressure;BME280_temperature;BME280_humidity;BME280_pressure;Samples;Min_cycle;Max_cycle;Signal;HPM_P1;HPM_P2
2022/06/09 00:01:15;;;;;;;4.07;1.45;;;;;;;-141.50;100.00;63355.56;5073269;28;20131;-75
2022/06/09 00:03:53;;;;;;;7.35;1.60;;;;;;;-141.50;100.00;63355.56;5073372;28;20063;-77
2022/06/09 00:06:22;;;;;;;6.07;1.50;;;;;;;-141.50;100.00;63355.56;5076928;28;20570;-78
2022/06/09 00:08:51;;;;;;;3.17;1.40;;;;;;;-141.50;100.00;63355.56;5058846;28;20109;-77
2022/06/09 00:11:21;;;;;;;2.67;1.40;;;;;;;-141.50;100.00;63355.56;5057782;28;20084;-77
2022/06/09 00:13:48;;;;;;;3.42;1.55;;;;;;;-141.50;100.00;63355.56;5078302;28;20102;-77
2022/06/09 00:16:16;;;;;;;2.80;1.20;;;;;;;-141.50;100.00;63355.56;5076468;28;20048;-78
2022/06/09 00:18:43;;;;;;;3.67;1.20;;;;;;;-141.50;100.00;63355.56;5057358;28;20151;-79
2022/06/09 00:21:09;;;;;;;5.47;1.58;;;;;;;-141.50;100.00;63355.56;5076413;28;20127;-74
2022/06/09 00:23:36;;;;;;;5.10;1.40;;;;;;;-141.50;100.00;63355.56;5075757;28;20127;-76
2022/06/09 00:26:06;;;;;;;8.70;1.55;;;;;;;-141.50;100.00;63355.56;5080207;28;20170;-77
2022/06/09 00:28:35;;;;;;;4.65;1.70;;;;;;;-141.50;100.00;63355.56;5063404;28;20130;-76
2022/06/09 00:31:02;;;;;;;3.53;1.38;;;;;;;-141.50;100.00;63355.56;5060512;28;20076;-77
2022/06/09 00:33:29;;;;;;;5.97;1.85;;;;;;;-141.50;100.00;63355.56;5077547;28;20572;-77
2022/06/09 00:35:55;;;;;;;7.20;2.05;;;;;;;-141.50;100.00;63355.56;5074068;28;20081;-77
2022/06/09 00:38:22;;;;;;;5.55;2.17;;;;;;;-141.50;100.00;63355.56;5070658;28;20308;-77
2022/06/09 00:40:49;;;;;;;9.23;1.92;;;;;;;-141.50;100.00;63355.56;5073856;28;20139;-76
2022/06/09 00:43:15;;;;;;;4.03;1.95;;;;;;;-141.50;100.00;63355.56;5077504;28;20080;-77
2022/06/09 00:45:52;;;;;;;6.60;2.00;;;;;;;-141.50;100.00;63355.56;5060500;28;20044;-77
2022/06/09 00:48:45;;;;;;;6.15;2.10;;;;;;;-141.50;100.00;63355.56;5072373;28;20102;-77
2022/06/09 00:51:31;;;;;;;7.45;2.00;;;;;;;-141.50;100.00;63355.56;5072216;28;20181;-77
2022/06/09 00:54:04;;;;;;;5.38;1.88;;;;;;;-141.50;100.00;63355.56;5055210;28;20052;-77
2022/06/09 00:56:33;;;;;;;4.97;1.95;;;;;;;-141.50;100.00;63355.56;5055314;28;20561;-76
2022/06/09 00:59:02;;;;;;;7.90;1.70;;;;;;;-141.50;100.00;63355.56;5054876;28;20084;-76
2022/06/09 01:01:28;;;;;;;4.63;1.65;;;;;;;-141.50;100.00;63355.56;5055179;28;20470;-77
2022/06/09 01:04:03;;;;;;;5.63;1.50;;;;;;;-141.50;100.00;63355.56;5073269;28;20048;-77
2022/06/09 01:06:35;;;;;;;7.32;1.65;;;;;;;-141.50;100.00;63355.56;5073908;28;20113;-76
2022/06/09 01:09:11;;;;;;;5.03;1.83;;;;;;;-141.50;100.00;63355.56;5055474;28;20075;-76
2022/06/09 01:11:39;;;;;;;3.47;1.70;;;;;;;-141.50;100.00;63355.56;5055966;28;20495;-76
2022/06/09 01:14:07;;;;;;;3.28;1.50;;;;;;;-141.50;100.00;63355.56;5077163;28;20049;-76
2022/06/09 01:16:57;;;;;;;4.93;1.83;;;;;;;-141.50;100.00;63355.56;5071232;28;20048;-77
2022/06/09 01:19:45;;;;;;;4.53;1.45;;;;;;;-141.50;100.00;63355.56;5018944;28;20489;-76
2022/06/09 01:22:31;;;;;;;5.40;1.80;;;;;;;-141.50;100.00;63355.56;5064589;28;20052;-76
2022/06/09 01:25:24;;;;;;;9.13;1.60;;;;;;;-141.50;100.00;63355.56;5043145;28;20449;-77
2022/06/09 01:28:09;;;;;;;6.78;1.60;;;;;;;-141.50;100.00;63355.56;5057647;28;20064;-77
2022/06/09 01:30:46;;;;;;;6.88;1.40;;;;;;;-141.50;100.00;63355.56;5056061;28;20087;-75
2022/06/09 01:33:25;;;;;;;4.75;1.50;;;;;;;-141.50;100.00;63355.56;5072880;28;20069;-75
2022/06/09 01:36:10;;;;;;;3.70;1.60;;;;;;;-141.50;100.00;63355.56;5054880;28;20102;-76
2022/06/09 01:38:48;;;;;;;8.73;1.73;;;;;;;-141.50;100.00;63355.56;5052554;28;20044;-77
2022/06/09 01:41:16;;;;;;;5.38;1.65;;;;;;;-141.50;100.00;63355.56;5033655;28;20339;-77
2022/06/09 01:43:47;;;;;;;4.60;1.63;;;;;;;-141.50;100.00;63355.56;5051101;28;20064;-76
2022/06/09 01:46:22;;;;;;;4.10;1.73;;;;;;;-141.50;100.00;63355.56;5058525;28;20583;-77
2022/06/09 01:48:54;;;;;;;6.13;2.05;;;;;;;-141.50;100.00;63355.56;5051882;28;20052;-76
2022/06/09 01:51:27;;;;;;;7.05;2.70;;;;;;;-141.50;100.00;63355.56;5045909;28;20087;-76
2022/06/09 01:54:00;;;;;;;5.80;2.35;;;;;;;-141.50;100.00;63355.56;5070026;28;20063;-77
2022/06/09 01:56:31;;;;;;;4.00;2.28;;;;;;;-141.50;100.00;63355.56;5060007;28;20052;-80
2022/06/09 01:59:15;;;;;;;11.35;3.03;;;;;;;-141.50;100.00;63355.56;5070070;28;20052;-79
2022/06/09 02:01:52;;;;;;;7.28;3.17;;;;;;;-141.50;100.00;63355.56;5071510;28;20427;-78
2022/06/09 02:04:46;;;;;;;6.40;2.10;;;;;;;-141.50;100.00;63355.56;5071353;28;20125;-80
2022/06/09 02:07:14;;;;;;;4.18;1.90;;;;;;;-141.50;100.00;63355.56;5053275;28;20294;-80
2022/06/09 02:09:41;;;;;;;6.57;2.30;;;;;;;-141.50;100.00;63355.56;5071686;28;20056;-79
2022/06/09 02:12:11;;;;;;;6.55;1.80;;;;;;;-141.50;100.00;63355.56;5053273;28;20479;-78
2022/06/09 02:14:45;;;;;;;4.15;1.67;;;;;;;-141.50;100.00;63355.56;5078858;28;20084;-78
2022/06/09 02:17:11;;;;;;;5.05;1.55;;;;;;;-141.50;100.00;63355.56;5078614;28;20072;-76
2022/06/09 02:19:40;;;;;;;6.78;1.38;;;;;;;-141.50;100.00;63355.56;5079214;28;20051;-77
2022/06/09 02:22:10;;;;;;;6.13;1.63;;;;;;;-141.50;100.00;63355.56;5079799;28;20107;-78
2022/06/09 02:24:37;;;;;;;4.55;1.23;;;;;;;-141.50;100.00;63355.56;5061162;28;20056;-78
2022/06/09 02:27:05;;;;;;;5.97;1.60;;;;;;;-141.50;100.00;63355.56;5082890;28;20079;-76
2022/06/09 02:29:35;;;;;;;4.95;1.42;;;;;;;-141.50;100.00;63355.56;5057290;28;20097;-77
2022/06/09 02:32:01;;;;;;;5.70;1.40;;;;;;;-141.50;100.00;63355.56;5076223;28;20152;-76
2022/06/09 02:34:28;;;;;;;5.88;1.50;;;;;;;-141.50;100.00;63355.56;5077934;28;20076;-77
2022/06/09 02:36:55;;;;;;;4.72;1.40;;;;;;;-141.50;100.00;63355.56;5062575;28;20098;-77
2022/06/09 02:39:27;;;;;;;3.88;1.50;;;;;;;-141.50;100.00;63355.56;5078590;28;20049;-78
2022/06/09 02:41:53;;;;;;;5.88;1.90;;;;;;;-141.50;100.00;63355.56;5078639;28;20076;-77
2022/06/09 02:44:29;;;;;;;3.92;1.67;;;;;;;-141.50;100.00;63355.56;5079703;28;20376;-78
2022/06/09 02:46:56;;;;;;;4.88;1.67;;;;;;;-141.50;100.00;63355.56;5081808;28;20048;-77
2022/06/09 02:49:24;;;;;;;5.90;1.60;;;;;;;-141.50;100.00;63355.56;5077583;28;20481;-78
2022/06/09 02:51:54;;;;;;;5.07;1.70;;;;;;;-141.50;100.00;63355.56;5078172;28;20213;-78
2022/06/09 02:54:21;;;;;;;4.57;1.73;;;;;;;-141.50;100.00;63355.56;5077349;28;20095;-78
2022/06/09 02:56:47;;;;;;;4.85;1.60;;;;;;;-141.50;100.00;63355.56;5076998;28;20051;-79
2022/06/09 02:59:14;;;;;;;6.13;1.88;;;;;;;-141.50;100.00;63355.56;5053064;28;20699;-80
2022/06/09 03:01:41;;;;;;;5.38;2.17;;;;;;;-141.50;100.00;63355.56;5070301;28;20135;-80
2022/06/09 03:04:08;;;;;;;5.47;2.20;;;;;;;-141.50;100.00;63355.56;5070695;28;20084;-78
2022/06/09 03:06:38;;;;;;;3.97;1.90;;;;;;;-141.50;100.00;63355.56;5052797;28;20049;-80
2022/06/09 03:09:05;;;;;;;7.88;2.15;;;;;;;-141.50;100.00;63355.56;5070472;28;20080;-81
2022/06/09 03:11:31;;;;;;;3.13;1.50;;;;;;;-141.50;100.00;63355.56;5053399;28;20078;-79
2022/06/09 03:13:58;;;;;;;5.95;1.60;;;;;;;-141.50;100.00;63355.56;5072206;28;20087;-78
2022/06/09 03:16:24;;;;;;;3.85;1.38;;;;;;;-141.50;100.00;63355.56;5070178;28;20517;-78
2022/06/09 03:18:51;;;;;;;7.30;1.80;;;;;;;-141.50;100.00;63355.56;5049383;28;20053;-79
2022/06/09 03:21:18;;;;;;;2.97;1.30;;;;;;;-141.50;100.00;63355.56;5050146;28;20104;-79
2022/06/09 03:23:47;;;;;;;4.05;1.35;;;;;;;-141.50;100.00;63355.56;5052386;28;20068;-80
2022/06/09 03:26:16;;;;;;;5.78;1.60;;;;;;;-141.50;100.00;63355.56;5047491;28;20156;-78
2022/06/09 03:28:42;;;;;;;4.28;1.40;;;;;;;-141.50;100.00;63355.56;5049588;28;20053;-78
2022/06/09 03:31:09;;;;;;;3.72;1.25;;;;;;;-141.50;100.00;63355.56;5048828;28;20056;-79
2022/06/09 03:33:38;;;;;;;2.65;1.30;;;;;;;-141.50;100.00;63355.56;5055194;28;20088;-79
2022/06/09 03:36:05;;;;;;;5.18;1.67;;;;;;;-141.50;100.00;63355.56;5050206;28;20071;-80
2022/06/09 03:38:32;;;;;;;1.92;1.10;;;;;;;-141.50;100.00;63355.56;5051998;28;20105;-79
2022/06/09 03:40:58;;;;;;;3.30;1.20;;;;;;;-141.50;100.00;63355.56;5072750;28;20048;-79
2022/06/09 03:43:25;;;;;;;3.30;1.13;;;;;;;-141.50;100.00;63355.56;5074700;28;20056;-77
2022/06/09 03:45:52;;;;;;;3.58;1.33;;;;;;;-141.50;100.00;63355.56;5075615;28;20048;-79
2022/06/09 03:48:18;;;;;;;5.38;1.40;;;;;;;-141.50;100.00;63355.56;5055680;28;20086;-78
2022/06/09 03:50:45;;;;;;;3.60;1.30;;;;;;;-141.50;100.00;63355.56;5056601;28;20463;-78
2022/06/09 03:53:15;;;;;;;3.15;1.40;;;;;;;-141.50;100.00;63355.56;5056158;28;20049;-79
2022/06/09 03:55:42;;;;;;;3.60;1.20;;;;;;;-141.50;100.00;63355.56;5056843;28;20044;-78
2022/06/09 03:58:11;;;;;;;5.93;1.35;;;;;;;-141.50;100.00;63355.56;5073404;28;20095;-78
2022/06/09 04:00:38;;;;;;;2.80;1.25;;;;;;;-141.50;100.00;63355.56;5079004;28;20040;-80
2022/06/09 04:03:05;;;;;;;2.80;1.30;;;;;;;-141.50;100.00;63355.56;5075301;28;20080;-78
2022/06/09 04:05:33;;;;;;;3.85;1.40;;;;;;;-141.50;100.00;63355.56;5069203;28;20048;-79
2022/06/09 04:08:01;;;;;;;3.67;1.13;;;;;;;-141.50;100.00;63355.56;5067425;28;20098;-78
2022/06/09 04:10:31;;;;;;;4.25;1.40;;;;;;;-141.50;100.00;63355.56;5068054;28;20202;-79
2022/06/09 04:13:01;;;;;;;2.85;1.20;;;;;;;-141.50;100.00;63355.56;5067932;28;20451;-79
2022/06/09 04:15:32;;;;;;;4.38;1.52;;;;;;;-141.50;100.00;63355.56;5050466;28;20088;-79
2022/06/09 04:17:59;;;;;;;5.28;1.35;;;;;;;-141.50;100.00;63355.56;5068290;28;20087;-79
2022/06/09 04:20:26;;;;;;;3.83;1.15;;;;;;;-141.50;100.00;63355.56;5068283;28;20060;-79
2022/06/09 04:22:53;;;;;;;6.53;1.48;;;;;;;-141.50;100.00;63355.56;5068395;28;20052;-79
2022/06/09 04:25:20;;;;;;;4.15;1.40;;;;;;;-141.50;100.00;63355.56;5067877;28;20114;-79
2022/06/09 04:27:47;;;;;;;3.28;1.20;;;;;;;-141.50;100.00;63355.56;5066979;28;20167;-79
2022/06/09 04:30:15;;;;;;;2.17;1.23;;;;;;;-141.50;100.00;63355.56;5068018;28;20640;-78
2022/06/09 04:32:53;;;;;;;3.47;1.35;;;;;;;-141.50;100.00;63355.56;5067967;28;20491;-78
2022/06/09 04:35:20;;;;;;;2.85;1.30;;;;;;;-141.50;100.00;63355.56;5068503;28;20053;-77
2022/06/09 04:38:01;;;;;;;7.65;1.58;;;;;;;-141.50;100.00;63355.56;5068353;28;20510;-76
2022/06/09 04:40:35;;;;;;;2.83;1.30;;;;;;;-141.50;100.00;63355.56;5050244;28;20044;-78
2022/06/09 04:43:04;;;;;;;4.20;1.50;;;;;;;-141.50;100.00;63355.56;5066930;28;20060;-79
2022/06/09 04:45:32;;;;;;;2.60;1.50;;;;;;;-141.50;100.00;63355.56;5067530;28;20063;-78
2022/06/09 04:47:58;;;;;;;5.55;1.30;;;;;;;-141.50;100.00;63355.56;5067956;28;20064;-77
2022/06/09 04:50:27;;;;;;;5.88;1.50;;;;;;;-141.50;100.00;63355.56;5051928;28;20053;-77
2022/06/09 04:52:54;;;;;;;4.13;1.40;;;;;;;-141.50;100.00;63355.56;5085503;28;20047;-78
2022/06/09 04:55:21;;;;;;;3.80;1.55;;;;;;;-141.50;100.00;63355.56;5091810;28;20083;-77
2022/06/09 04:57:47;;;;;;;4.10;1.38;;;;;;;-141.50;100.00;63355.56;5073667;28;20048;-79
2022/06/09 05:00:18;;;;;;;2.97;1.33;;;;;;;-141.50;100.00;63355.56;5074519;28;20109;-78
2022/06/09 05:02:45;;;;;;;4.50;1.52;;;;;;;-141.50;100.00;63355.56;5090671;28;20087;-78
2022/06/09 05:05:29;;;;;;;2.05;1.30;;;;;;;-141.50;100.00;63355.56;5091250;28;20087;-80
2022/06/09 05:07:58;;;;;;;6.15;1.80;;;;;;;-141.50;100.00;63355.56;5081703;28;20565;-80
2022/06/09 05:10:28;;;;;;;5.15;1.70;;;;;;;-141.50;100.00;63355.56;5069716;28;20064;-79
2022/06/09 05:12:58;;;;;;;4.65;1.70;;;;;;;-141.50;100.00;63355.56;5073547;28;20504;-79
2022/06/09 05:15:25;;;;;;;3.33;1.70;;;;;;;-141.50;100.00;63355.56;5070934;28;20060;-80
2022/06/09 05:17:53;;;;;;;4.35;1.80;;;;;;;-141.50;100.00;63355.56;5070180;28;20118;-79
2022/06/09 05:20:22;;;;;;;4.80;2.10;;;;;;;-141.50;100.00;63355.56;5071517;28;20430;-77
2022/06/09 05:22:49;;;;;;;4.70;1.58;;;;;;;-141.50;100.00;63355.56;5071023;28;20053;-80
2022/06/09 05:25:16;;;;;;;4.15;1.60;;;;;;;-141.50;100.00;63355.56;5071451;28;20106;-78
2022/06/09 05:27:45;;;;;;;4.05;1.85;;;;;;;-141.50;100.00;63355.56;5070670;28;20049;-81
2022/06/09 05:30:17;;;;;;;5.20;2.10;;;;;;;-141.50;100.00;63355.56;5071473;28;20060;-80
2022/06/09 05:32:44;;;;;;;4.65;2.00;;;;;;;-141.50;100.00;63355.56;5070891;28;20064;-78
2022/06/09 05:35:10;;;;;;;4.25;2.20;;;;;;;-141.50;100.00;63355.56;5053746;28;20086;-80
2022/06/09 05:45:57;;;;;;;5.85;2.60;;;;;;;-141.50;100.00;63355.56;5070449;28;20490;-78
2022/06/09 05:48:24;;;;;;;4.78;3.00;;;;;;;-141.50;100.00;63355.56;5070767;28;20056;-79
2022/06/09 05:50:52;;;;;;;8.48;3.28;;;;;;;-141.50;100.00;63355.56;5073972;28;20057;-77
2022/06/09 05:53:19;;;;;;;8.23;3.40;;;;;;;-141.50;100.00;63355.56;5055335;28;20083;-78
2022/06/09 05:55:45;;;;;;;7.90;3.72;;;;;;;-141.50;100.00;63355.56;5071518;28;20076;-78
2022/06/09 05:58:12;;;;;;;10.45;3.30;;;;;;;-141.50;100.00;63355.56;5054783;28;20415;-80
2022/06/09 06:00:41;;;;;;;8.18;3.80;;;;;;;-141.50;100.00;63355.56;5073363;28;20509;-80
2022/06/09 06:03:13;;;;;;;8.32;4.00;;;;;;;-141.50;100.00;63355.56;5054615;28;20083;-81
2022/06/09 06:08:25;;;;;;;7.00;3.93;;;;;;;-141.50;100.00;63355.56;5073036;28;20053;-79
2022/06/09 06:10:53;;;;;;;9.85;4.20;;;;;;;-141.50;100.00;63355.56;5084932;28;20060;-80
2022/06/09 06:13:19;;;;;;;9.23;4.10;;;;;;;-141.50;100.00;63355.56;5091823;28;20036;-80
2022/06/09 06:15:46;;;;;;;11.00;4.15;;;;;;;-141.50;100.00;63355.56;5093773;28;20048;-79
2022/06/09 06:18:13;;;;;;;8.38;3.97;;;;;;;-141.50;100.00;63355.56;5076276;28;20055;-80
2022/06/09 06:20:39;;;;;;;11.95;4.15;;;;;;;-141.50;100.00;63355.56;5093341;28;20032;-81
2022/06/09 06:23:08;;;;;;;10.50;5.90;;;;;;;-141.50;100.00;63355.56;5079039;28;20107;-80
2022/06/09 06:25:36;;;;;;;7.25;4.03;;;;;;;-141.50;100.00;63355.56;5058107;28;20056;-81
2022/06/09 06:28:03;;;;;;;12.05;4.18;;;;;;;-141.50;100.00;63355.56;5053585;28;20542;-80
2022/06/09 06:30:30;;;;;;;8.68;3.88;;;;;;;-141.50;100.00;63355.56;5072600;28;20105;-80
2022/06/09 06:32:57;;;;;;;7.35;4.18;;;;;;;-141.50;100.00;63355.56;5054007;28;20139;-80
2022/06/09 06:35:23;;;;;;;7.78;3.65;;;;;;;-141.50;100.00;63355.56;5055433;28;20101;-78
2022/06/09 06:37:50;;;;;;;6.85;3.90;;;;;;;-141.50;100.00;63355.56;5072086;28;20056;-80
2022/06/09 06:40:17;;;;;;;6.43;4.15;;;;;;;-141.50;100.00;63355.56;5070145;28;20105;-80
2022/06/09 06:42:44;;;;;;;7.97;4.20;;;;;;;-141.50;100.00;63355.56;5070929;28;20044;-79
2022/06/09 06:45:13;;;;;;;7.20;3.90;;;;;;;-141.50;100.00;63355.56;5053723;28;20125;-79
2022/06/09 06:47:40;;;;;;;6.68;4.18;;;;;;;-141.50;100.00;63355.56;5053672;28;20056;-80
2022/06/09 06:50:09;;;;;;;9.80;3.97;;;;;;;-141.50;100.00;63355.56;5070511;28;20568;-80
2022/06/09 06:52:36;;;;;;;7.55;3.83;;;;;;;-141.50;100.00;63355.56;5069555;28;20056;-80
2022/06/09 06:55:05;;;;;;;8.45;4.20;;;;;;;-141.50;100.00;63355.56;5071298;28;20084;-80
2022/06/09 06:57:33;;;;;;;7.05;4.28;;;;;;;-141.50;100.00;63355.56;5071548;28;20461;-81
2022/06/09 07:00:00;;;;;;;6.78;4.18;;;;;;;-141.50;100.00;63355.56;5072812;28;20060;-82
2022/06/09 07:02:27;;;;;;;7.53;4.05;;;;;;;-141.50;100.00;63355.56;5072225;28;20524;-80
2022/06/09 07:05:16;;;;;;;9.15;4.47;;;;;;;-141.50;100.00;63355.56;5072618;28;20071;-80
2022/06/09 07:07:42;;;;;;;9.32;4.70;;;;;;;-141.50;100.00;63355.56;5054293;28;20048;-80
2022/06/09 07:10:11;;;;;;;8.07;4.65;;;;;;;-141.50;100.00;63355.56;5054005;28;20068;-80
2022/06/09 07:12:39;;;;;;;11.52;4.90;;;;;;;-141.50;100.00;63355.56;5071593;28;20048;-80
2022/06/09 07:15:08;;;;;;;8.23;4.72;;;;;;;-141.50;100.00;63355.56;5071217;28;20167;-81
2022/06/09 07:17:34;;;;;;;8.55;4.95;;;;;;;-141.50;100.00;63355.56;5054069;28;20102;-80
2022/06/09 07:20:02;;;;;;;11.77;5.22;;;;;;;-141.50;100.00;63355.56;5072477;28;20052;-80
2022/06/09 07:22:28;;;;;;;6.45;4.68;;;;;;;-141.50;100.00;63355.56;5053562;28;20044;-80
2022/06/09 07:24:55;;;;;;;7.80;5.57;;;;;;;-141.50;100.00;63355.56;5071828;28;20048;-80
2022/06/09 07:27:23;;;;;;;16.30;5.90;;;;;;;-141.50;100.00;63355.56;5053865;28;20052;-80
2022/06/09 07:29:50;;;;;;;9.52;5.65;;;;;;;-141.50;100.00;63355.56;5071532;28;20102;-80
2022/06/09 07:32:17;;;;;;;13.30;6.35;;;;;;;-141.50;100.00;63355.56;5068882;28;20144;-82
2022/06/09 07:34:46;;;;;;;13.20;6.07;;;;;;;-141.50;100.00;63355.56;5067428;28;20094;-82
2022/06/09 07:37:13;;;;;;;9.80;6.57;;;;;;;-141.50;100.00;63355.56;5086738;28;20053;-81
2022/06/09 07:39:40;;;;;;;11.85;6.90;;;;;;;-141.50;100.00;63355.56;5085097;28;20053;-79
2022/06/09 07:42:06;;;;;;;12.90;7.32;;;;;;;-141.50;100.00;63355.56;5067146;28;20055;-80
2022/06/09 07:44:33;;;;;;;16.25;7.43;;;;;;;-141.50;100.00;63355.56;5087091;28;20045;-80
2022/06/09 07:47:00;;;;;;;14.48;7.88;;;;;;;-141.50;100.00;63355.56;5069246;28;20067;-79
2022/06/09 07:49:26;;;;;;;15.13;7.63;;;;;;;-141.50;100.00;63355.56;5070526;28;20056;-80
2022/06/09 07:51:53;;;;;;;14.98;8.05;;;;;;;-141.50;100.00;63355.56;5084534;28;20075;-81
2022/06/09 07:54:19;;;;;;;12.25;8.45;;;;;;;-141.50;100.00;63355.56;5084872;28;20049;-79
2022/06/09 07:56:46;;;;;;;11.85;7.55;;;;;;;-141.50;100.00;63355.56;5065090;28;20060;-77
2022/06/09 07:59:13;;;;;;;18.45;8.65;;;;;;;-141.50;100.00;63355.56;5055128;28;20056;-80
2022/06/09 08:01:39;;;;;;;10.90;7.82;;;;;;;-141.50;100.00;63355.56;5070540;28;20129;-80
2022/06/09 08:04:06;;;;;;;18.10;8.85;;;;;;;-141.50;100.00;63355.56;5070048;28;20112;-80
2022/06/09 08:06:33;;;;;;;13.45;8.40;;;;;;;-141.50;100.00;63355.56;5071751;28;20056;-79
2022/06/09 08:09:00;;;;;;;16.48;8.20;;;;;;;-141.50;100.00;63355.56;5053288;28;20048;-80
2022/06/09 08:11:33;;;;;;;15.13;8.48;;;;;;;-141.50;100.00;63355.56;5053177;28;20080;-80
2022/06/09 08:14:01;;;;;;;15.50;8.55;;;;;;;-141.50;100.00;63355.56;5070501;28;20072;-79
2022/06/09 08:16:28;;;;;;;14.57;8.60;;;;;;;-141.50;100.00;63355.56;5053007;28;20143;-80
2022/06/09 08:18:56;;;;;;;17.30;8.48;;;;;;;-141.50;100.00;63355.56;5071328;28;20718;-79
2022/06/09 08:21:24;;;;;;;17.27;9.02;;;;;;;-141.50;100.00;63355.56;5071347;28;20044;-79
2022/06/09 08:24:09;;;;;;;16.10;8.77;;;;;;;-141.50;100.00;63355.56;5071217;28;20166;-79
2022/06/09 08:26:36;;;;;;;18.30;8.73;;;;;;;-141.50;100.00;63355.56;5073552;28;20109;-79
2022/06/09 08:29:03;;;;;;;15.88;9.13;;;;;;;-141.50;100.00;63355.56;5073739;28;20080;-79
2022/06/09 08:31:29;;;;;;;19.50;9.20;;;;;;;-141.50;100.00;63355.56;5073690;28;20079;-79
2022/06/09 08:33:56;;;;;;;15.60;8.93;;;;;;;-141.50;100.00;63355.56;5074446;28;20071;-80
2022/06/09 08:36:23;;;;;;;20.70;9.50;;;;;;;-141.50;100.00;63355.56;5074067;28;20087;-79
2022/06/09 08:38:49;;;;;;;17.70;8.30;;;;;;;-141.50;100.00;63355.56;5073506;28;20084;-81
2022/06/09 08:41:45;;;;;;;16.45;8.40;;;;;;;-141.50;100.00;63355.56;5074390;28;20057;-81
2022/06/09 08:44:34;;;;;;;19.92;9.00;;;;;;;-141.50;100.00;63355.56;5025077;28;20044;-79
2022/06/09 08:47:19;;;;;;;17.67;8.48;;;;;;;-141.50;100.00;63355.56;5055505;28;20052;-78
2022/06/09 08:50:11;;;;;;;18.85;9.23;;;;;;;-141.50;100.00;63355.56;5057997;28;20045;-81
2022/06/09 08:52:46;;;;;;;13.27;8.38;;;;;;;-141.50;100.00;63355.56;5076535;28;20052;-81
2022/06/09 08:55:41;;;;;;;15.60;8.00;;;;;;;-141.50;100.00;63355.56;5074881;28;20048;-81
2022/06/09 08:58:13;;;;;;;13.57;8.05;;;;;;;-141.50;100.00;63355.56;5056908;28;20486;-80
2022/06/09 09:00:48;;;;;;;14.02;8.25;;;;;;;-141.50;100.00;63355.56;5075075;28;20082;-81
2022/06/09 09:03:36;;;;;;;15.40;8.30;;;;;;;-141.50;100.00;63355.56;5072717;28;20094;-79
2022/06/09 09:06:07;;;;;;;13.88;8.57;;;;;;;-141.50;100.00;63355.56;5073096;28;20131;-79
2022/06/09 09:08:36;;;;;;;15.90;7.72;;;;;;;-141.50;100.00;63355.56;5074392;28;20044;-80
2022/06/09 09:11:39;;;;;;;13.40;8.13;;;;;;;-141.50;100.00;63355.56;5074161;28;20048;-80
2022/06/09 09:14:17;;;;;;;13.30;8.38;;;;;;;-141.50;100.00;63355.56;5075013;28;20084;-78
2022/06/09 09:17:02;;;;;;;13.75;8.73;;;;;;;-141.50;100.00;63355.56;5074839;28;20612;-81
2022/06/09 09:19:40;;;;;;;14.52;8.23;;;;;;;-141.50;100.00;63355.56;5073437;28;20049;-79
2022/06/09 09:22:19;;;;;;;16.75;8.05;;;;;;;-141.50;100.00;63355.56;5074798;28;20087;-80
2022/06/09 09:24:48;;;;;;;13.20;8.05;;;;;;;-141.50;100.00;63355.56;5073950;28;20052;-81
2022/06/09 09:27:35;;;;;;;14.40;9.15;;;;;;;-141.50;100.00;63355.56;5056863;28;20048;-80
2022/06/09 09:30:20;;;;;;;14.18;8.60;;;;;;;-141.50;100.00;63355.56;5074322;28;20098;-81
2022/06/09 09:32:51;;;;;;;13.02;8.00;;;;;;;-141.50;100.00;63355.56;5056707;28;20053;-80
2022/06/09 09:35:31;;;;;;;11.73;7.95;;;;;;;-141.50;100.00;63355.56;5083335;28;20075;-81
2022/06/09 09:37:59;;;;;;;15.88;8.50;;;;;;;-141.50;100.00;63355.56;5069719;28;20568;-79
2022/06/09 09:40:30;;;;;;;13.90;8.02;;;;;;;-141.50;100.00;63355.56;5070077;28;20091;-79
2022/06/09 09:43:08;;;;;;;16.27;8.50;;;;;;;-141.50;100.00;63355.56;5074678;28;20053;-80
2022/06/09 09:45:48;;;;;;;15.77;7.78;;;;;;;-141.50;100.00;63355.56;5058241;28;20056;-80
2022/06/09 09:48:40;;;;;;;15.68;7.60;;;;;;;-141.50;100.00;63355.56;5076027;28;20056;-81
2022/06/09 09:51:13;;;;;;;13.55;7.50;;;;;;;-141.50;100.00;63355.56;5075541;28;20091;-81
2022/06/09 09:53:46;;;;;;;11.07;7.05;;;;;;;-141.50;100.00;63355.56;5056496;28;20040;-81
2022/06/09 09:56:15;;;;;;;13.90;7.28;;;;;;;-141.50;100.00;63355.56;5056425;28;20056;-80
2022/06/09 09:58:48;;;;;;;13.25;6.50;;;;;;;-141.50;100.00;63355.56;5057496;28;20109;-81
2022/06/09 10:08:35;;;;;;;12.55;6.80;;;;;;;-141.50;100.00;63355.56;5056520;28;20082;-80
2022/06/09 10:10:37;;;;;;;13.32;7.00;;;;;;;-141.50;100.00;63355.56;5080959;28;20055;-81
2022/06/09 10:13:31;;;;;;;12.48;6.30;;;;;;;-141.50;100.00;63355.56;5063615;28;20063;-80
2022/06/09 10:16:15;;;;;;;15.10;6.97;;;;;;;-141.50;100.00;63355.56;5072971;28;20211;-79
2022/06/09 10:19:02;;;;;;;10.82;6.40;;;;;;;-141.50;100.00;63355.56;5073436;28;20086;-81
2022/06/09 10:22:03;;;;;;;13.75;6.80;;;;;;;-141.50;100.00;63355.56;5081606;28;20062;-77
2022/06/09 10:24:48;;;;;;;14.00;6.82;;;;;;;-141.50;100.00;63355.56;5079941;28;20045;-80
2022/06/09 10:27:21;;;;;;;12.43;6.90;;;;;;;-141.50;100.00;63355.56;5062027;28;20076;-80
2022/06/09 10:29:59;;;;;;;14.40;7.15;;;;;;;-141.50;100.00;63355.56;5079978;28;20095;-82
2022/06/09 10:32:34;;;;;;;12.65;6.82;;;;;;;-141.50;100.00;63355.56;5078284;28;20090;-81
2022/06/09 10:35:16;;;;;;;12.85;7.32;;;;;;;-141.50;100.00;63355.56;5076404;28;20498;-80
2022/06/09 10:37:45;;;;;;;14.70;7.57;;;;;;;-141.50;100.00;63355.56;5076854;28;20075;-80
2022/06/09 10:40:12;;;;;;;12.48;7.53;;;;;;;-141.50;100.00;63355.56;5058183;28;20053;-79
2022/06/09 10:42:41;;;;;;;14.73;7.78;;;;;;;-141.50;100.00;63355.56;5075375;28;20055;-82
2022/06/09 10:45:39;;;;;;;15.35;6.55;;;;;;;-141.50;100.00;63355.56;5058060;28;20127;-81
2022/06/09 10:57:23;;;;;;;16.25;6.65;;;;;;;-141.50;100.00;63355.56;5075848;28;20056;-82
2022/06/09 10:59:58;;;;;;;13.38;6.85;;;;;;;-141.50;100.00;63355.56;5076064;28;20568;-81
2022/06/09 11:02:28;;;;;;;8.60;5.70;;;;;;;-141.50;100.00;63355.56;5077751;28;20049;-80
2022/06/09 11:04:56;;;;;;;11.10;5.40;;;;;;;-141.50;100.00;63355.56;5058184;28;20044;-79
2022/06/09 11:07:46;;;;;;;12.55;5.82;;;;;;;-141.50;100.00;63355.56;5078182;28;20048;-80
2022/06/09 11:10:28;;;;;;;11.95;5.22;;;;;;;-141.50;100.00;63355.56;5062788;28;20071;-78
2022/06/09 11:13:22;;;;;;;9.88;5.25;;;;;;;-141.50;100.00;63355.56;5080875;28;20048;-79
2022/06/09 11:15:55;;;;;;;12.75;5.25;;;;;;;-141.50;100.00;63355.56;5080688;28;20076;-80
2022/06/09 11:18:28;;;;;;;9.18;5.07;;;;;;;-141.50;100.00;63355.56;5062746;28;20098;-82
2022/06/09 11:21:32;;;;;;;11.05;5.13;;;;;;;-141.50;100.00;63355.56;5059115;28;20072;-80
2022/06/09 11:24:10;;;;;;;10.35;4.72;;;;;;;-141.50;100.00;63355.56;5074362;28;20041;-79
2022/06/09 11:27:07;;;;;;;11.20;4.75;;;;;;;-141.50;100.00;63355.56;5073402;28;20140;-81
2022/06/09 11:30:05;;;;;;;7.88;5.00;;;;;;;-141.50;100.00;63355.56;5055140;28;20075;-81
2022/06/09 11:32:56;;;;;;;8.00;4.55;;;;;;;-141.50;100.00;63355.56;5055538;28;20053;-81
2022/06/09 11:35:47;;;;;;;7.38;4.50;;;;;;;-141.50;100.00;63355.56;5073458;28;20408;-79
2022/06/09 11:38:28;;;;;;;11.63;5.10;;;;;;;-141.50;100.00;63355.56;5073890;28;20060;-81
2022/06/09 11:41:19;;;;;;;12.82;5.95;;;;;;;-141.50;100.00;63355.56;5054613;28;20056;-80
2022/06/09 11:44:25;;;;;;;9.55;5.20;;;;;;;-141.50;100.00;63355.56;5057208;28;20132;-81
2022/06/09 11:46:53;;;;;;;8.48;5.43;;;;;;;-141.50;100.00;63355.56;5054971;28;20044;-82
2022/06/09 11:49:26;;;;;;;15.73;5.70;;;;;;;-141.50;100.00;63355.56;5073058;28;20098;-81
2022/06/09 11:51:53;;;;;;;9.30;5.60;;;;;;;-141.50;100.00;63355.56;5054218;28;20048;-80
2022/06/09 11:54:43;;;;;;;9.77;5.70;;;;;;;-141.50;100.00;63355.56;5069976;28;20644;-80
2022/06/09 11:57:31;;;;;;;12.73;6.90;;;;;;;-141.50;100.00;63355.56;5071762;28;20048;-82